Time;durP1;ratioP1;P1;durP2;ratioP2;P2;SDS_P1;SDS_P2;PMS_P1;PMS_P2;Temp;Humidity;BMP_temperature;BMP_pressure;BME280_temperature;BME280_humidity;BME280_pressure;Samples;Min_cycle;Max_cycle;Signal;HPM_P1;HPM_P2
2021/10/16 00:00:18;;;;;;;6.95;4.60;;;;;;;11.16;93.78;98307.00;4993741;28;20495;-61
2021/10/16 00:02:43;;;;;;;7.57;4.38;;;;;;;11.89;88.75;98302.31;4994514;28;20162;-60
2021/10/16 00:05:09;;;;;;;5.95;4.15;;;;;;;11.99;88.72;98308.91;4995199;28;20057;-59
2021/10/16 00:07:34;;;;;;;11.60;6.80;;;;;;;10.81;83.61;98303.94;4995009;28;20105;-61
2021/10/16 00:10:00;;;;;;;8.02;5.55;;;;;;;11.00;86.59;98294.50;4997524;28;20079;-61
2021/10/16 00:12:26;;;;;;;11.20;6.60;;;;;;;9.90;89.94;98301.88;4994067;28;20041;-60
2021/10/16 00:14:52;;;;;;;12.18;7.38;;;;;;;10.01;87.94;98301.50;4994289;28;20066;-59
2021/10/16 00:17:17;;;;;;;7.95;4.90;;;;;;;10.69;88.68;98301.78;4993569;28;20072;-58
2021/10/16 00:19:43;;;;;;;8.27;4.68;;;;;;;11.24;88.25;98294.47;4992467;28;20114;-61
2021/10/16 00:22:09;;;;;;;9.55;5.68;;;;;;;11.30;85.78;98294.25;4992967;28;20029;-59
2021/10/16 00:24:34;;;;;;;12.38;7.45;;;;;;;9.74;87.12;98298.94;4995720;28;20515;-59
2021/10/16 00:26:59;;;;;;;9.75;5.75;;;;;;;10.25;88.69;98301.59;4991548;28;20704;-59
2021/10/16 00:29:25;;;;;;;74.55;9.50;;;;;;;10.08;87.75;98300.41;4994238;28;20117;-62
2021/10/16 00:31:50;;;;;;;18.17;6.55;;;;;;;10.17;90.99;98299.25;4992775;28;20042;-60
2021/10/16 00:34:16;;;;;;;8.00;4.85;;;;;;;11.04;93.94;98299.63;4993399;28;20398;-62
2021/10/16 00:36:41;;;;;;;176.43;9.55;;;;;;;9.98;89.26;98301.59;4993208;28;20128;-58
2021/10/16 00:39:07;;;;;;;49.45;7.28;;;;;;;10.23;91.15;98315.50;4992280;28;20197;-59
2021/10/16 00:41:32;;;;;;;82.90;7.65;;;;;;;9.65;88.00;98313.13;4991637;28;20061;-61
2021/10/16 00:44:11;;;;;;;60.17;6.55;;;;;;;9.23;92.93;98312.72;4994017;28;20038;-58
2021/10/16 00:46:36;;;;;;;40.17;5.70;;;;;;;9.42;91.46;98313.81;4993486;28;20038;-60
2021/10/16 00:49:02;;;;;;;91.85;6.30;;;;;;;10.10;88.39;98313.41;4993939;28;20112;-59
2021/10/16 00:51:27;;;;;;;124.40;7.40;;;;;;;10.15;85.88;98312.31;4991381;28;20038;-60
2021/10/16 00:53:52;;;;;;;316.23;10.93;;;;;;;9.59;89.75;98317.66;4993178;28;20026;-62
2021/10/16 00:56:18;;;;;;;190.50;8.95;;;;;;;9.71;87.20;98322.47;4994061;28;20385;-59
2021/10/16 00:58:44;;;;;;;17.63;5.45;;;;;;;9.87;86.91;98314.16;4992411;28;20034;-62
2021/10/16 01:01:09;;;;;;;171.98;9.07;;;;;;;9.47;88.11;98318.91;4992585;28;20110;-61
2021/10/16 01:03:35;;;;;;;190.48;10.20;;;;;;;9.01;91.29;98315.94;4993201;28;20688;-59
2021/10/16 01:06:00;;;;;;;101.10;8.43;;;;;;;9.37;91.67;98318.31;4991182;28;20045;-59
2021/10/16 01:08:26;;;;;;;89.55;7.47;;;;;;;9.51;89.99;98320.50;4992657;28;20022;-61
2021/10/16 01:10:51;;;;;;;71.32;7.53;;;;;;;9.54;89.20;98322.16;4999856;28;20038;-60
2021/10/16 01:13:17;;;;;;;26.67;6.20;;;;;;;9.94;88.19;98307.84;4996115;28;20584;-59
2021/10/16 01:15:44;;;;;;;22.42;5.65;;;;;;;9.62;87.86;98312.34;4992037;28;20407;-59
2021/10/16 01:18:10;;;;;;;65.15;6.07;;;;;;;9.64;86.93;98314.00;4992555;28;20022;-59
2021/10/16 01:20:44;;;;;;;199.90;9.82;;;;;;;9.14;89.62;98310.38;4993152;28;20592;-59
2021/10/16 01:23:10;;;;;;;94.72;7.88;;;;;;;8.91;90.53;98318.88;4994366;28;20025;-60
2021/10/16 01:25:37;;;;;;;190.23;9.52;;;;;;;8.87;90.97;98313.75;5001010;28;20070;-59
2021/10/16 01:28:03;;;;;;;91.53;7.13;;;;;;;8.88;89.29;98309.41;4991249;28;20475;-59
2021/10/16 01:30:29;;;;;;;49.78;7.25;;;;;;;9.17;87.97;98310.28;4992107;28;20038;-59
2021/10/16 01:32:54;;;;;;;32.40;7.28;;;;;;;8.57;89.28;98307.69;4991399;28;20060;-60
2021/10/16 01:35:20;;;;;;;19.33;6.82;;;;;;;9.26;86.28;98315.19;4991627;28;20073;-59
2021/10/16 01:37:48;;;;;;;23.70;7.20;;;;;;;8.81;86.45;98311.34;4993682;28;20026;-59
2021/10/16 01:40:14;;;;;;;37.35;7.00;;;;;;;8.97;86.19;98309.16;4992372;28;20149;-60
2021/10/16 01:42:42;;;;;;;58.03;7.57;;;;;;;8.63;87.67;98315.31;4993431;28;20058;-60
2021/10/16 01:45:10;;;;;;;86.28;8.30;;;;;;;8.63;86.50;98315.31;4988687;28;20038;-60
2021/10/16 01:47:53;;;;;;;48.08;7.68;;;;;;;8.54;86.82;98317.31;5006401;28;20034;-60
2021/10/16 01:50:20;;;;;;;32.85;5.85;;;;;;;9.02;87.84;98312.47;4992258;28;20058;-62
2021/10/16 01:52:46;;;;;;;43.05;6.75;;;;;;;9.00;84.77;98309.03;4992190;28;20029;-60
2021/10/16 01:55:11;;;;;;;6.15;4.05;;;;;;;11.09;83.83;98308.13;4990313;28;20034;-60
2021/10/16 01:57:37;;;;;;;63.60;6.68;;;;;;;9.64;85.87;98320.97;4988959;28;20493;-59
2021/10/16 02:00:06;;;;;;;61.47;7.18;;;;;;;9.12;85.73;98312.19;4996451;28;20033;-59
2021/10/16 02:02:31;;;;;;;19.52;4.88;;;;;;;9.44;90.16;98309.41;4993696;28;20038;-59
2021/10/16 02:04:57;;;;;;;56.65;7.03;;;;;;;9.40;83.39;98318.22;4994432;28;20415;-60
2021/10/16 02:07:22;;;;;;;95.15;7.88;;;;;;;8.19;88.30;98319.94;4991400;28;20043;-59
2021/10/16 02:09:47;;;;;;;24.00;6.57;;;;;;;8.81;86.72;98315.69;4994096;28;20396;-60
2021/10/16 02:12:13;;;;;;;119.10;9.07;;;;;;;8.52;87.47;98319.09;4994577;28;20045;-60
2021/10/16 02:14:38;;;;;;;32.28;6.82;;;;;;;8.79;89.05;98325.28;4990183;28;20037;-60
2021/10/16 02:17:03;;;;;;;15.15;5.55;;;;;;;9.19;85.32;98313.69;4991695;28;20093;-59
2021/10/16 02:19:29;;;;;;;34.92;7.05;;;;;;;7.99;88.16;98323.03;4993658;28;20108;-59
2021/10/16 02:21:54;;;;;;;14.65;6.00;;;;;;;8.51;87.94;98320.88;4991848;28;20046;-60
2021/10/16 02:24:19;;;;;;;29.15;6.05;;;;;;;8.86;86.35;98324.22;4991607;28;20030;-60
2021/10/16 02:26:45;;;;;;;32.72;6.05;;;;;;;9.26;86.29;98320.41;4991293;28;20054;-57
2021/10/16 02:29:10;;;;;;;57.88;6.82;;;;;;;8.70;85.18;98326.38;4993052;28;20041;-60
2021/10/16 02:31:35;;;;;;;20.80;5.65;;;;;;;8.55;90.32;98321.63;4991326;28;20065;-61
2021/10/16 02:34:01;;;;;;;20.80;5.78;;;;;;;8.34;87.19;98323.03;4992357;28;20072;-60
2021/10/16 02:36:26;;;;;;;12.05;5.97;;;;;;;8.96;85.98;98317.84;4992352;28;20033;-61
2021/10/16 02:38:52;;;;;;;19.45;5.53;;;;;;;8.54;86.72;98312.97;4992928;28;20073;-59
2021/10/16 02:41:18;;;;;;;46.60;6.43;;;;;;;8.29;89.64;98320.56;4992846;28;20052;-60
2021/10/16 02:43:43;;;;;;;33.47;5.68;;;;;;;8.16;88.74;98325.22;4992379;28;20021;-61
2021/10/16 02:46:09;;;;;;;37.15;6.90;;;;;;;8.18;87.99;98322.56;4994689;28;20037;-60
2021/10/16 02:48:34;;;;;;;59.67;6.75;;;;;;;8.63;84.86;98324.84;4994163;28;20073;-59
2021/10/16 02:50:59;;;;;;;84.53;7.75;;;;;;;8.45;84.47;98328.81;4989924;28;20046;-59
2021/10/16 02:53:25;;;;;;;21.10;6.53;;;;;;;8.04;87.47;98328.13;4993053;28;20037;-60
2021/10/16 02:55:50;;;;;;;71.07;7.88;;;;;;;8.05;87.07;98327.22;4993242;28;20413;-58
2021/10/16 02:58:15;;;;;;;14.95;6.80;;;;;;;8.08;88.33;98332.34;4994536;28;20041;-59
2021/10/16 03:00:41;;;;;;;86.20;8.40;;;;;;;7.64;87.85;98342.09;4989970;28;20151;-61
2021/10/16 03:03:06;;;;;;;77.90;7.00;;;;;;;7.72;90.29;98340.19;4992681;28;20491;-60
2021/10/16 03:05:31;;;;;;;29.98;6.45;;;;;;;7.76;90.69;98334.00;4991512;28;20631;-60
2021/10/16 03:07:57;;;;;;;7.50;4.68;;;;;;;8.40;89.06;98339.31;4989607;28;20415;-60
2021/10/16 03:10:22;;;;;;;57.20;7.05;;;;;;;7.69;89.09;98340.25;4993376;28;20392;-59
2021/10/16 03:12:47;;;;;;;67.13;7.13;;;;;;;7.50;88.82;98340.69;4989851;28;20555;-58
2021/10/16 03:15:12;;;;;;;30.75;6.63;;;;;;;7.63;89.75;98341.25;4989836;28;20038;-60
2021/10/16 03:17:38;;;;;;;18.05;7.15;;;;;;;7.72;90.07;98345.38;4990952;28;20034;-60
2021/10/16 03:20:05;;;;;;;39.55;7.13;;;;;;;7.96;88.40;98343.03;4989518;28;20108;-60
2021/10/16 03:22:30;;;;;;;76.78;8.25;;;;;;;7.61;88.25;98345.63;4991529;28;20065;-60
2021/10/16 03:24:55;;;;;;;59.30;7.15;;;;;;;7.67;88.17;98348.06;4988900;28;20072;-61
2021/10/16 03:27:21;;;;;;;60.72;7.18;;;;;;;7.37;90.32;98348.75;4990359;28;20077;-60
2021/10/16 03:29:46;;;;;;;130.50;7.72;;;;;;;7.20;90.66;98351.75;4988533;28;20038;-59
2021/10/16 03:32:11;;;;;;;61.60;7.53;;;;;;;7.41;89.95;98345.22;4990425;28;20061;-59
2021/10/16 03:34:36;;;;;;;125.25;7.25;;;;;;;7.23;90.73;98356.88;4989201;28;20120;-60
2021/10/16 03:37:02;;;;;;;24.70;5.50;;;;;;;7.24;91.29;98353.38;4992230;28;20133;-60
2021/10/16 03:39:27;;;;;;;22.67;6.75;;;;;;;7.42;91.67;98341.72;4989908;28;20030;-61
2021/10/16 03:41:53;;;;;;;67.03;6.30;;;;;;;6.54;93.24;98343.56;4989146;28;20038;-61
2021/10/16 03:44:18;;;;;;;17.55;5.80;;;;;;;7.20;94.20;98349.13;4990772;28;20129;-60
2021/10/16 03:46:43;;;;;;;34.70;5.07;;;;;;;7.37;92.19;98356.53;4990493;28;20389;-60
2021/10/16 03:49:09;;;;;;;53.88;5.15;;;;;;;7.71;89.18;98359.22;4988476;28;20121;-59
2021/10/16 03:51:34;;;;;;;22.60;5.35;;;;;;;7.66;91.85;98350.69;4987658;28;20056;-59
2021/10/16 03:54:01;;;;;;;53.05;5.50;;;;;;;7.29;91.96;98346.34;4989736;28;20058;-60
2021/10/16 03:56:27;;;;;;;6.00;3.78;;;;;;;7.99;92.21;98353.38;4990017;28;20502;-61
2021/10/16 03:58:52;;;;;;;54.28;5.70;;;;;;;7.63;89.51;98351.63;4991544;28;20026;-61
2021/10/16 04:01:18;;;;;;;30.90;5.00;;;;;;;7.42;90.70;98358.16;4989175;28;20060;-59
2021/10/16 04:03:43;;;;;;;10.38;5.38;;;;;;;7.33;90.64;98355.75;4989860;28;20030;-60
2021/10/16 04:06:08;;;;;;;36.63;5.55;;;;;;;6.90;93.43;98351.50;4992322;28;20586;-60
2021/10/16 04:08:34;;;;;;;8.18;5.18;;;;;;;7.30;92.75;98348.06;4988881;28;20476;-60
2021/10/16 04:10:59;;;;;;;19.77;5.57;;;;;;;6.87;93.33;98360.19;4989428;28;20056;-59
2021/10/16 04:13:25;;;;;;;33.92;6.40;;;;;;;6.82;93.77;98350.78;4990872;28;20144;-60
2021/10/16 04:15:50;;;;;;;59.78;6.38;;;;;;;6.93;93.26;98351.44;4991753;28;20462;-61
2021/10/16 04:18:16;;;;;;;36.35;5.38;;;;;;;7.14;92.27;98347.53;4993072;28;20116;-60
2021/10/16 04:20:41;;;;;;;19.50;4.95;;;;;;;7.51;90.59;98357.94;4993216;28;20141;-60
2021/10/16 04:23:06;;;;;;;37.22;5.20;;;;;;;7.35;89.99;98356.56;4994097;28;20034;-60
2021/10/16 04:25:32;;;;;;;44.85;5.05;;;;;;;7.05;93.45;98358.94;4993299;28;20036;-63
2021/10/16 04:27:57;;;;;;;29.38;4.60;;;;;;;7.32;91.68;98357.50;4995024;28;20156;-60
2021/10/16 04:30:23;;;;;;;76.22;4.95;;;;;;;7.16;90.02;98357.88;4991707;28;20121;-60
2021/10/16 04:32:48;;;;;;;69.45;6.45;;;;;;;6.81;91.12;98359.47;4994001;28;20085;-60
2021/10/16 04:35:13;;;;;;;24.05;5.05;;;;;;;7.31;89.54;98362.72;4992864;28;20030;-60
2021/10/16 04:37:39;;;;;;;104.43;7.15;;;;;;;7.23;89.07;98368.09;4992915;28;20032;-61
2021/10/16 04:40:39;;;;;;;38.05;5.15;;;;;;;7.16;90.57;98360.47;4993275;28;20151;-61
2021/10/16 04:43:01;;;;;;;15.13;4.78;;;;;;;7.26;90.45;98369.75;4992429;28;20087;-61
2021/10/16 04:45:27;;;;;;;46.10;5.18;;;;;;;7.43;89.99;98367.66;4992508;28;20119;-60
2021/10/16 04:47:52;;;;;;;93.78;9.45;;;;;;;7.16;90.14;98365.66;4995077;28;20044;-60
2021/10/16 04:50:18;;;;;;;45.47;5.13;;;;;;;7.22;90.48;98370.72;4992217;28;20038;-60
2021/10/16 04:52:43;;;;;;;59.20;5.47;;;;;;;7.12;91.20;98370.91;4991418;28;20056;-59
2021/10/16 04:55:09;;;;;;;78.15;6.80;;;;;;;7.01;91.12;98367.69;4995103;28;20034;-59
2021/10/16 04:57:34;;;;;;;34.03;5.65;;;;;;;6.86;93.09;98375.78;4994867;28;20103;-60
2021/10/16 05:00:00;;;;;;;37.25;4.90;;;;;;;7.27;91.07;98382.69;4993378;28;20026;-62
2021/10/16 05:02:25;;;;;;;50.40;5.40;;;;;;;7.29;91.93;98373.13;4992593;28;20122;-60
2021/10/16 05:04:52;;;;;;;29.00;5.50;;;;;;;6.90;94.42;98374.84;4991932;28;20030;-60
2021/10/16 05:07:17;;;;;;;45.47;6.47;;;;;;;7.23;92.46;98369.84;4992099;28;20049;-60
2021/10/16 05:09:45;;;;;;;77.57;6.78;;;;;;;7.45;90.72;98373.66;4993382;28;20026;-61
2021/10/16 05:12:10;;;;;;;65.07;7.40;;;;;;;6.89;93.09;98373.13;4993460;28;20149;-60
2021/10/16 05:14:35;;;;;;;44.05;5.18;;;;;;;7.23;92.63;98377.63;4991347;28;20112;-59
2021/10/16 05:17:01;;;;;;;15.20;6.38;;;;;;;7.30;92.44;98374.00;4993297;28;20042;-60
2021/10/16 05:19:26;;;;;;;14.57;4.97;;;;;;;7.44;92.61;98374.53;4991150;28;20028;-60
2021/10/16 05:21:51;;;;;;;11.90;6.20;;;;;;;7.56;91.68;98380.38;4994083;28;20137;-60
2021/10/16 05:24:17;;;;;;;14.85;5.25;;;;;;;7.75;90.50;98371.25;4991952;28;20037;-61
2021/10/16 05:26:42;;;;;;;14.50;5.45;;;;;;;7.70;90.96;98379.16;4992080;28;20159;-60
2021/10/16 05:29:08;;;;;;;13.38;5.40;;;;;;;7.27;91.43;98379.25;4991309;28;20029;-61
2021/10/16 05:31:33;;;;;;;23.05;5.95;;;;;;;6.66;94.81;98387.41;4991221;28;20132;-60
2021/10/16 05:33:58;;;;;;;22.85;3.60;;;;;;;7.56;92.67;98382.97;4989767;28;20045;-60
2021/10/16 05:36:24;;;;;;;67.75;7.25;;;;;;;6.93;92.97;98385.16;4990360;28;20184;-59
2021/10/16 05:38:49;;;;;;;53.78;5.60;;;;;;;7.29;92.18;98388.72;4992834;28;20058;-59
2021/10/16 05:41:15;;;;;;;11.57;4.70;;;;;;;7.90;93.81;98391.69;4992538;28;20042;-61
2021/10/16 05:43:40;;;;;;;18.92;5.97;;;;;;;7.65;90.47;98393.13;4994197;28;20034;-60
2021/10/16 05:46:06;;;;;;;5.43;3.67;;;;;;;8.16;91.88;98390.19;4991834;28;20561;-60
2021/10/16 05:48:31;;;;;;;15.20;5.28;;;;;;;8.02;92.43;98395.72;4994222;28;20029;-61
2021/10/16 05:51:00;;;;;;;9.93;4.20;;;;;;;7.97;89.92;98391.50;4990718;28;20129;-60
2021/10/16 05:53:25;;;;;;;20.73;5.60;;;;;;;7.14;91.66;98389.88;4992284;28;20512;-60
2021/10/16 05:55:52;;;;;;;14.00;4.18;;;;;;;7.60;92.12;98392.38;4990270;28;20054;-60
2021/10/16 05:58:17;;;;;;;7.72;4.03;;;;;;;8.05;89.67;98394.75;4991495;28;20085;-60
2021/10/16 06:00:43;;;;;;;26.95;5.22;;;;;;;7.64;89.71;98394.84;4992451;28;20038;-60
2021/10/16 06:03:08;;;;;;;6.82;3.55;;;;;;;7.99;89.85;98407.91;4992016;28;20315;-60
2021/10/16 06:05:37;;;;;;;22.55;4.43;;;;;;;7.47;91.12;98413.41;4991968;28;20134;-59
2021/10/16 06:08:03;;;;;;;26.85;5.07;;;;;;;7.31;91.47;98412.03;4991118;28;20027;-60
2021/10/16 06:10:28;;;;;;;15.77;6.30;;;;;;;7.32;91.34;98414.59;4990752;28;20073;-61
2021/10/16 06:12:54;;;;;;;14.13;5.65;;;;;;;6.58;95.14;98415.22;4990159;28;20054;-60
2021/10/16 06:15:19;;;;;;;35.83;7.13;;;;;;;7.16;92.22;98417.56;4989012;28;20167;-60
2021/10/16 06:17:45;;;;;;;49.85;7.57;;;;;;;6.72;93.31;98423.56;4991429;28;20018;-60
2021/10/16 06:20:11;;;;;;;62.70;7.25;;;;;;;6.76;96.35;98424.38;4999408;28;20050;-59
2021/10/16 06:22:37;;;;;;;19.13;6.38;;;;;;;7.39;92.38;98424.84;4991363;28;20026;-61
2021/10/16 06:25:03;;;;;;;57.53;7.07;;;;;;;7.32;91.43;98430.16;4992663;28;20443;-60
2021/10/16 06:27:28;;;;;;;14.38;6.70;;;;;;;7.68;90.67;98430.28;4990098;28;20034;-61
2021/10/16 06:29:54;;;;;;;9.73;5.78;;;;;;;7.75;91.37;98433.56;4990613;28;20034;-59
2021/10/16 06:32:19;;;;;;;17.38;6.00;;;;;;;7.62;88.88;98438.19;4991123;28;20038;-61
2021/10/16 06:34:44;;;;;;;37.25;5.75;;;;;;;7.56;90.65;98437.47;4990670;28;20121;-60
2021/10/16 06:37:10;;;;;;;24.70;5.90;;;;;;;7.51;90.64;98433.22;4989753;28;20587;-59
2021/10/16 06:39:35;;;;;;;13.00;5.38;;;;;;;7.82;90.17;98435.13;4990483;28;20026;-60
2021/10/16 06:42:00;;;;;;;16.60;4.88;;;;;;;7.84;89.69;98442.91;4990008;28;20046;-61
2021/10/16 06:44:26;;;;;;;8.40;5.18;;;;;;;8.57;88.34;98440.28;4988278;28;20026;-61
2021/10/16 06:46:51;;;;;;;8.70;4.57;;;;;;;8.52;90.67;98441.31;4998979;28;20886;-62
2021/10/16 06:49:17;;;;;;;8.13;5.07;;;;;;;8.46;89.02;98447.50;4991052;28;20026;-60
2021/10/16 06:51:42;;;;;;;17.52;5.50;;;;;;;8.52;89.04;98441.31;4993232;28;20413;-61
2021/10/16 06:54:10;;;;;;;12.63;5.40;;;;;;;9.13;87.58;98444.00;4992184;28;20034;-60
2021/10/16 06:56:35;;;;;;;9.77;5.70;;;;;;;8.97;86.50;98449.63;4990143;28;20042;-60
2021/10/16 06:59:01;;;;;;;15.27;5.60;;;;;;;8.19;88.19;98455.06;4990992;28;20092;-61
2021/10/16 07:01:26;;;;;;;13.45;6.05;;;;;;;8.79;87.61;98455.34;4989877;28;20444;-60
2021/10/16 07:03:52;;;;;;;13.75;5.00;;;;;;;8.59;87.11;98461.91;4991586;28;20029;-61
2021/10/16 07:06:18;;;;;;;22.02;6.00;;;;;;;8.53;87.25;98459.47;4989414;28;20037;-61
2021/10/16 07:08:43;;;;;;;14.18;6.43;;;;;;;9.10;85.05;98460.56;4990186;28;20025;-62
2021/10/16 07:11:08;;;;;;;12.77;6.60;;;;;;;8.99;87.59;98467.81;4991696;28;20617;-62
2021/10/16 07:13:34;;;;;;;11.73;5.90;;;;;;;9.25;85.91;98464.50;4990285;28;20026;-60
2021/10/16 07:16:00;;;;;;;9.02;5.45;;;;;;;9.06;85.80;98465.00;4991931;28;20192;-61
2021/10/16 07:18:25;;;;;;;9.60;5.10;;;;;;;8.94;84.65;98470.53;4989693;28;20101;-60
2021/10/16 07:20:51;;;;;;;9.35;4.78;;;;;;;9.29;84.20;98481.72;4986672;28;20034;-61
2021/10/16 07:23:20;;;;;;;8.98;4.30;;;;;;;9.66;85.15;98478.06;4989985;28;20026;-61
2021/10/16 07:25:46;;;;;;;10.77;5.22;;;;;;;8.35;86.51;98476.34;4989307;28;20033;-60
2021/10/16 07:28:11;;;;;;;8.10;4.68;;;;;;;9.20;83.33;98488.03;4990739;28;20195;-59
2021/10/16 07:30:36;;;;;;;7.07;4.90;;;;;;;9.38;81.71;98485.81;4990255;28;20065;-60
2021/10/16 07:33:03;;;;;;;7.28;4.60;;;;;;;9.43;82.84;98490.00;4990174;28;20065;-60
2021/10/16 07:35:28;;;;;;;7.82;4.80;;;;;;;9.26;84.53;98492.22;4990022;28;20034;-58
2021/10/16 07:37:53;;;;;;;8.77;4.25;;;;;;;10.28;81.26;98484.84;4989582;28;20030;-61
2021/10/16 07:40:19;;;;;;;8.50;4.50;;;;;;;10.28;78.99;98484.00;4989332;28;20056;-60
2021/10/16 07:42:44;;;;;;;8.35;4.47;;;;;;;10.96;80.65;98483.47;4991959;28;20109;-60
2021/10/16 07:45:10;;;;;;;7.28;4.25;;;;;;;10.96;78.43;98488.69;4990620;28;20023;-61
2021/10/16 07:47:36;;;;;;;6.70;4.35;;;;;;;11.12;78.53;98489.00;4990217;28;20038;-59
2021/10/16 07:50:02;;;;;;;6.63;4.07;;;;;;;10.87;79.57;98483.78;4988415;28;20436;-61
2021/10/16 07:52:27;;;;;;;6.63;3.70;;;;;;;10.61;78.03;98488.13;4993253;28;20041;-61
2021/10/16 07:54:53;;;;;;;10.73;4.15;;;;;;;11.90;73.91;98492.28;4994353;28;20072;-60
2021/10/16 07:57:19;;;;;;;6.70;3.70;;;;;;;11.86;74.87;98486.28;4992582;28;20775;-59
2021/10/16 07:59:45;;;;;;;7.00;3.83;;;;;;;12.34;69.86;98495.75;4995486;28;20636;-60
2021/10/16 08:02:10;;;;;;;5.57;3.22;;;;;;;12.29;71.75;98495.06;4994600;28;20566;-60
2021/10/16 08:04:35;;;;;;;4.68;3.17;;;;;;;12.80;69.89;98494.78;4993909;28;20474;-61
2021/10/16 08:07:01;;;;;;;5.95;3.00;;;;;;;15.41;62.22;98489.50;4994716;28;20034;-60
2021/10/16 08:09:26;;;;;;;4.72;2.90;;;;;;;14.54;62.03;98490.38;4994401;28;20039;-60
2021/10/16 08:11:51;;;;;;;6.18;2.90;;;;;;;17.60;55.12;98485.78;4994976;28;20469;-61
2021/10/16 08:14:17;;;;;;;5.05;2.17;;;;;;;18.24;57.58;98486.16;4993196;28;20439;-60
2021/10/16 08:16:42;;;;;;;4.50;2.70;;;;;;;16.44;57.15;98483.84;4992298;28;20042;-59
2021/10/16 08:19:10;;;;;;;6.10;2.90;;;;;;;16.45;58.10;98480.31;4997368;28;20021;-61
2021/10/16 08:21:36;;;;;;;5.07;2.80;;;;;;;20.12;50.29;98480.47;4993703;28;20122;-60
2021/10/16 08:24:02;;;;;;;4.40;2.28;;;;;;;20.89;49.96;98480.97;4993814;28;20060;-59
2021/10/16 08:26:27;;;;;;;4.97;2.47;;;;;;;21.00;46.51;98477.50;4993503;28;20039;-61
2021/10/16 08:28:53;;;;;;;5.72;2.58;;;;;;;20.28;47.79;98473.13;4994649;28;20026;-61
2021/10/16 08:31:18;;;;;;;4.82;2.50;;;;;;;19.50;48.40;98476.91;4991467;28;20046;-61
2021/10/16 08:33:44;;;;;;;6.28;2.78;;;;;;;16.13;55.85;98479.47;4990539;28;20045;-61
2021/10/16 08:36:09;;;;;;;7.70;2.67;;;;;;;17.53;53.51;98477.41;4990057;28;20074;-60
2021/10/16 08:38:34;;;;;;;4.28;2.25;;;;;;;17.63;52.79;98479.50;4991065;28;20514;-60
2021/10/16 08:41:06;;;;;;;5.82;2.30;;;;;;;21.34;44.85;98467.81;4993785;28;20441;-60
2021/10/16 08:43:31;;;;;;;7.18;2.50;;;;;;;18.77;50.40;98475.66;4994510;28;20029;-60
2021/10/16 08:46:01;;;;;;;4.78;2.10;;;;;;;19.73;47.07;98471.81;4976026;28;20053;-60
2021/10/16 08:48:27;;;;;;;7.55;2.40;;;;;;;18.71;47.76;98473.44;4993059;28;20137;-60
2021/10/16 08:50:53;;;;;;;6.65;2.20;;;;;;;22.07;42.32;98464.75;4992469;28;20050;-59
2021/10/16 08:53:19;;;;;;;4.35;2.00;;;;;;;20.12;43.99;98469.91;4993115;28;20109;-60
2021/10/16 08:55:52;;;;;;;3.97;1.70;;;;;;;23.00;42.21;98463.31;4995186;28;20196;-59
2021/10/16 08:58:18;;;;;;;4.07;2.00;;;;;;;22.67;42.91;98466.03;4993109;28;20037;-62
2021/10/16 09:00:52;;;;;;;4.63;1.90;;;;;;;23.91;38.84;98467.00;4991402;28;20038;-62
2021/10/16 09:03:23;;;;;;;3.50;1.83;;;;;;;23.41;41.05;98465.13;4993391;28;20037;-61
2021/10/16 09:06:03;;;;;;;4.97;2.05;;;;;;;23.57;38.90;98461.13;4991886;28;20061;-60
2021/10/16 09:08:39;;;;;;;4.63;1.98;;;;;;;19.75;43.33;98470.72;4990464;28;20975;-61
2021/10/16 09:11:17;;;;;;;3.85;1.83;;;;;;;23.39;37.93;98458.25;4992282;28;20126;-60
2021/10/16 09:13:46;;;;;;;6.43;1.95;;;;;;;23.81;37.19;98458.16;4991618;28;20030;-61
2021/10/16 09:16:42;;;;;;;4.80;1.88;;;;;;;23.20;39.21;98453.69;4990948;28;20048;-60
2021/10/16 09:19:18;;;;;;;3.47;1.65;;;;;;;22.01;40.43;98465.25;4989905;28;20038;-63
2021/10/16 09:21:51;;;;;;;5.28;2.10;;;;;;;21.79;40.53;98463.47;4985174;28;20614;-60
2021/10/16 09:24:20;;;;;;;4.97;1.90;;;;;;;22.13;40.97;98457.13;4988657;28;20101;-61
2021/10/16 09:26:49;;;;;;;7.47;1.80;;;;;;;22.24;40.99;98466.03;4990518;28;20030;-59
2021/10/16 09:29:16;;;;;;;4.95;2.00;;;;;;;23.73;38.41;98463.28;4989781;28;20019;-57
2021/10/16 09:31:47;;;;;;;3.97;2.00;;;;;;;22.41;39.93;98464.69;4989001;28;20037;-57
2021/10/16 09:34:12;;;;;;;4.07;2.05;;;;;;;21.01;42.68;98465.09;4988602;28;20026;-58
2021/10/16 09:36:40;;;;;;;2.97;1.60;;;;;;;22.87;38.98;98468.84;4988173;28;20053;-57
2021/10/16 09:39:08;;;;;;;3.78;1.67;;;;;;;22.95;39.86;98461.03;4987685;28;20044;-58
2021/10/16 09:41:38;;;;;;;3.92;1.75;;;;;;;20.39;42.48;98469.69;4985057;28;20046;-60
2021/10/16 09:44:17;;;;;;;3.67;1.90;;;;;;;20.28;42.90;98466.97;4989556;28;20053;-59
2021/10/16 09:46:55;;;;;;;4.28;1.90;;;;;;;19.16;45.98;98465.16;4989808;28;20738;-58
2021/10/16 09:49:40;;;;;;;4.97;2.00;;;;;;;22.51;39.57;98455.81;4990263;28;20028;-60
2021/10/16 09:52:08;;;;;;;8.38;1.65;;;;;;;22.26;39.23;98457.00;4988665;28;20054;-61
2021/10/16 09:54:35;;;;;;;3.83;1.75;;;;;;;21.99;39.41;98461.88;4987768;28;20515;-59
2021/10/16 09:57:05;;;;;;;6.38;1.98;;;;;;;21.70;39.69;98457.09;4986553;28;20046;-60
2021/10/16 09:59:32;;;;;;;3.92;1.70;;;;;;;22.14;40.99;98452.66;4988029;28;20488;-60
2021/10/16 10:02:00;;;;;;;3.72;1.70;;;;;;;20.63;42.65;98460.91;4987448;28;20038;-62
2021/10/16 10:04:26;;;;;;;4.22;1.98;;;;;;;21.94;39.92;98456.94;4986935;28;20018;-59
2021/10/16 10:06:53;;;;;;;4.13;1.65;;;;;;;21.25;41.09;98460.56;4985703;28;20022;-59
2021/10/16 10:09:19;;;;;;;7.30;2.00;;;;;;;18.07;46.08;98457.38;4986273;28;20027;-60
2021/10/16 10:11:47;;;;;;;3.42;1.50;;;;;;;20.50;40.78;98455.63;4993468;28;20042;-59
2021/10/16 10:14:15;;;;;;;4.65;1.70;;;;;;;19.35;43.17;98447.06;4985483;28;20026;-63
2021/10/16 10:16:41;;;;;;;4.55;1.55;;;;;;;20.23;41.66;98454.06;4983020;28;20157;-59
2021/10/16 10:19:08;;;;;;;3.92;1.40;;;;;;;20.08;41.96;98450.72;4987048;28;20368;-60
2021/10/16 10:21:36;;;;;;;3.67;1.40;;;;;;;21.74;37.96;98459.38;4984138;28;20572;-61
2021/10/16 10:24:04;;;;;;;4.07;1.45;;;;;;;20.66;38.51;98452.69;4987694;28;20244;-60
2021/10/16 10:26:33;;;;;;;2.47;1.30;;;;;;;21.19;38.57;98453.06;4985957;28;20041;-61
2021/10/16 10:29:01;;;;;;;3.83;1.30;;;;;;;18.44;43.02;98454.97;4988880;28;20030;-63
2021/10/16 10:31:52;;;;;;;3.80;1.50;;;;;;;20.45;39.36;98450.66;4984629;28;20038;-62
2021/10/16 10:34:20;;;;;;;3.60;1.40;;;;;;;19.97;39.96;98453.31;4979516;28;20095;-61
2021/10/16 10:36:55;;;;;;;3.90;1.30;;;;;;;19.68;38.95;98450.91;4984952;28;20092;-61
2021/10/16 10:39:32;;;;;;;4.32;1.35;;;;;;;19.13;40.21;98446.84;4985184;28;20032;-60
2021/10/16 10:42:13;;;;;;;3.63;1.52;;;;;;;20.09;39.74;98451.56;4984533;28;20133;-60
2021/10/16 10:44:46;;;;;;;3.60;1.27;;;;;;;20.84;37.97;98447.81;4982825;28;20022;-63
2021/10/16 10:47:24;;;;;;;5.18;1.45;;;;;;;19.88;39.54;98438.94;4988112;28;20041;-63
2021/10/16 10:49:51;;;;;;;4.20;1.20;;;;;;;18.62;39.54;98445.84;4985585;28;20589;-63
2021/10/16 10:52:17;;;;;;;5.03;1.38;;;;;;;20.00;39.36;98439.88;4985444;28;20065;-63
2021/10/16 10:55:10;;;;;;;6.93;1.58;;;;;;;19.17;39.16;98425.41;4987697;28;20033;-60
2021/10/16 10:57:45;;;;;;;5.43;1.10;;;;;;;17.53;41.94;98432.59;4987179;28;20851;-61
2021/10/16 11:00:15;;;;;;;4.40;1.33;;;;;;;18.61;40.12;98419.50;4986219;28;20490;-59
2021/10/16 11:02:41;;;;;;;4.10;1.25;;;;;;;18.87;39.71;98420.41;4986404;28;20034;-59
2021/10/16 11:05:36;;;;;;;4.35;1.17;;;;;;;19.52;38.02;98415.91;4984395;28;20488;-59
2021/10/16 11:08:08;;;;;;;3.35;1.25;;;;;;;19.38;39.22;98411.63;4979415;28;20498;-61
2021/10/16 11:10:33;;;;;;;;;;;;;;;18.79;39.88;98406.84;4986200;28;20276;-60
2021/10/16 11:13:12;;;;;;;3.63;1.30;;;;;;;18.53;40.50;98406.81;4984732;28;20824;-60
2021/10/16 11:15:44;;;;;;;2.92;1.27;;;;;;;19.57;38.96;98403.22;4985227;28;20749;-60
2021/10/16 11:18:10;;;;;;;;;;;;;;;18.48;40.73;98399.19;4984505;28;20034;-66
2021/10/16 11:20:36;;;;;;;4.53;1.38;;;;;;;18.56;40.66;98395.19;4987221;28;19937;-59
2021/10/16 11:23:02;;;;;;;4.10;1.35;;;;;;;18.69;40.26;98391.63;4985912;28;20037;-67
2021/10/16 11:25:29;;;;;;;4.97;1.20;;;;;;;19.06;38.72;98386.47;4985378;28;20038;-61
2021/10/16 11:28:05;;;;;;;5.88;1.48;;;;;;;17.76;41.36;98385.44;4985901;28;20100;-61
2021/10/16 11:30:35;;;;;;;6.05;1.48;;;;;;;17.32;41.98;98392.56;4983817;28;20038;-64
2021/10/16 11:33:04;;;;;;;4.63;1.10;;;;;;;16.79;41.17;98382.66;4988035;28;20105;-60